createdAt,value
2022-12-31T00:01:18.074Z,2.38
2022-12-31T00:03:48.031Z,2.08
2022-12-31T00:06:18.967Z,1.83
2022-12-31T00:08:48.177Z,4.90
2022-12-31T00:11:16.638Z,999.90
2022-12-31T00:13:46.794Z,999.90
2022-12-31T00:18:47.810Z,999.90
2022-12-31T00:21:17.070Z,999.90
2022-12-31T00:23:45.485Z,999.90
2022-12-31T00:26:17.510Z,999.90
2022-12-31T00:28:46.712Z,999.90
2022-12-31T00:31:17.113Z,999.90
2022-12-31T00:33:47.494Z,999.90
2022-12-31T00:36:19.406Z,999.90
2022-12-31T00:38:49.776Z,999.90
2022-12-31T00:41:19.168Z,512.72
2022-12-31T00:43:48.107Z,999.90
2022-12-31T00:46:17.014Z,999.90
2022-12-31T00:48:48.257Z,999.90
2022-12-31T00:51:19.137Z,999.90
2022-12-31T00:53:47.417Z,999.90
2022-12-31T00:56:19.699Z,999.90
2022-12-31T00:58:48.513Z,999.90
2022-12-31T01:01:19.049Z,999.90
2022-12-31T01:03:51.159Z,999.90
2022-12-31T01:06:20.466Z,999.90
2022-12-31T01:08:50.880Z,999.90
2022-12-31T01:11:23.342Z,999.90
2022-12-31T01:13:54.166Z,999.90
2022-12-31T01:16:23.811Z,999.90
2022-12-31T01:18:54.228Z,999.90
2022-12-31T01:21:25.528Z,999.90
2022-12-31T01:23:53.720Z,999.90
2022-12-31T01:26:22.559Z,999.90
2022-12-31T01:28:51.023Z,999.90
2022-12-31T01:31:21.625Z,999.90
2022-12-31T01:33:51.721Z,999.90
2022-12-31T01:36:26.327Z,999.90
2022-12-31T01:38:55.114Z,999.90
2022-12-31T01:41:25.969Z,999.90
2022-12-31T01:43:56.446Z,999.90
2022-12-31T01:46:37.130Z,999.90
2022-12-31T01:49:12.274Z,999.90
2022-12-31T01:51:45.253Z,999.90
2022-12-31T01:54:16.531Z,999.90
2022-12-31T01:56:46.872Z,999.90
2022-12-31T01:59:18.409Z,999.90
2022-12-31T02:01:48.940Z,999.90
2022-12-31T02:04:17.965Z,999.90
2022-12-31T02:06:52.731Z,999.90
2022-12-31T02:09:21.455Z,999.90
2022-12-31T02:11:49.736Z,999.90
2022-12-31T02:14:20.715Z,999.90
2022-12-31T02:16:57.654Z,999.90
2022-12-31T02:20:03.339Z,780.92
2022-12-31T02:23:01.041Z,999.90
2022-12-31T02:25:45.511Z,93.60
2022-12-31T02:28:29.821Z,999.90
2022-12-31T02:31:04.481Z,999.90
2022-12-31T02:33:38.546Z,999.90
2022-12-31T02:36:11.693Z,999.90
2022-12-31T02:38:43.995Z,999.90
2022-12-31T02:41:34.121Z,999.90
2022-12-31T02:44:02.394Z,999.90
2022-12-31T02:46:44.282Z,999.90
2022-12-31T02:49:22.856Z,999.90
2022-12-31T02:51:58.837Z,999.90
2022-12-31T02:54:37.555Z,999.90
2022-12-31T02:57:12.257Z,999.90
2022-12-31T03:00:07.440Z,999.90
2022-12-31T03:02:43.430Z,999.90
2022-12-31T03:05:13.522Z,999.90
2022-12-31T03:07:43.308Z,999.90
2022-12-31T03:10:12.023Z,999.90
2022-12-31T03:12:47.556Z,999.90
2022-12-31T03:15:21.461Z,999.90
2022-12-31T03:17:57.344Z,999.90
2022-12-31T03:20:45.732Z,999.90
2022-12-31T03:23:17.183Z,999.90
2022-12-31T03:25:44.382Z,999.90
2022-12-31T03:28:14.727Z,999.90
2022-12-31T03:30:45.685Z,999.90
2022-12-31T03:33:15.900Z,999.90
2022-12-31T03:38:13.084Z,999.90
2022-12-31T03:40:42.761Z,999.90
2022-12-31T03:43:11.296Z,999.90
2022-12-31T03:45:41.294Z,999.90
2022-12-31T03:48:11.029Z,999.90
2022-12-31T03:50:40.887Z,999.90
2022-12-31T03:55:37.465Z,999.90
2022-12-31T03:58:05.730Z,999.90
2022-12-31T04:00:33.857Z,999.90
2022-12-31T04:03:02.183Z,999.90
2022-12-31T04:05:32.417Z,999.90
2022-12-31T04:10:31.593Z,999.90
2022-12-31T04:13:00.623Z,999.90
2022-12-31T04:15:28.880Z,999.90
2022-12-31T04:17:57.074Z,999.90
2022-12-31T04:20:25.248Z,999.90
2022-12-31T04:22:53.620Z,999.90
2022-12-31T04:25:23.265Z,999.90
2022-12-31T04:27:51.677Z,999.90
2022-12-31T04:30:20.319Z,999.90
2022-12-31T04:32:48.624Z,999.90
2022-12-31T04:35:18.075Z,999.90
2022-12-31T04:37:47.373Z,999.90
2022-12-31T04:40:15.583Z,999.90
2022-12-31T04:42:45.162Z,22.35
2022-12-31T04:45:13.537Z,999.90
2022-12-31T04:47:41.939Z,999.90
2022-12-31T04:50:10.502Z,999.90
2022-12-31T04:52:42.673Z,999.90
2022-12-31T04:55:12.049Z,999.90
2022-12-31T04:57:40.533Z,999.90
2022-12-31T05:00:11.648Z,999.90
2022-12-31T05:02:40.070Z,999.90
2022-12-31T05:05:09.166Z,999.90
2022-12-31T05:07:37.237Z,999.90
2022-12-31T05:10:06.386Z,999.90
2022-12-31T05:12:34.724Z,999.90
2022-12-31T05:15:03.032Z,999.90
2022-12-31T05:17:32.822Z,999.90
2022-12-31T05:20:01.041Z,268.13
2022-12-31T05:22:32.109Z,21.50
2022-12-31T05:25:01.761Z,30.42
2022-12-31T05:27:31.685Z,757.33
2022-12-31T05:30:00.372Z,40.67
2022-12-31T05:32:28.774Z,999.90
2022-12-31T05:34:59.833Z,35.67
2022-12-31T05:37:29.596Z,46.33
2022-12-31T05:39:58.442Z,17.73
2022-12-31T05:42:27.147Z,38.75
2022-12-31T05:44:55.500Z,999.90
2022-12-31T05:47:23.907Z,999.90
2022-12-31T05:49:52.063Z,999.90
2022-12-31T05:52:21.870Z,999.90
2022-12-31T05:54:50.155Z,999.90
2022-12-31T05:57:18.476Z,999.90
2022-12-31T05:59:46.749Z,5.03
2022-12-31T06:02:14.864Z,999.90
2022-12-31T06:04:43.557Z,61.95
2022-12-31T06:07:11.673Z,42.97
2022-12-31T06:09:41.765Z,30.13
2022-12-31T06:12:10.763Z,32.85
2022-12-31T06:14:45.252Z,37.22
2022-12-31T06:17:14.194Z,43.75
2022-12-31T06:19:42.329Z,78.63
2022-12-31T06:22:10.449Z,199.93
2022-12-31T06:24:38.628Z,175.05
2022-12-31T06:27:08.258Z,999.90
2022-12-31T06:29:36.582Z,999.90
2022-12-31T06:32:06.250Z,999.90
2022-12-31T06:34:34.741Z,999.90
2022-12-31T06:37:03.021Z,999.90
2022-12-31T06:39:31.538Z,999.90
2022-12-31T06:42:03.012Z,999.90
2022-12-31T06:44:32.513Z,999.90
2022-12-31T06:47:01.180Z,999.90
2022-12-31T06:49:29.529Z,999.90
2022-12-31T06:51:57.775Z,999.90
2022-12-31T06:54:26.061Z,999.90
2022-12-31T06:56:54.703Z,999.90
2022-12-31T06:59:26.646Z,999.90
2022-12-31T07:02:13.831Z,999.90
2022-12-31T07:05:20.750Z,999.90
2022-12-31T07:07:59.437Z,999.90
2022-12-31T07:10:41.081Z,999.90
2022-12-31T07:13:41.458Z,999.90
2022-12-31T07:16:23.638Z,999.90
2022-12-31T07:19:03.228Z,999.90
2022-12-31T07:21:35.194Z,999.90
2022-12-31T07:24:04.218Z,999.90
2022-12-31T07:26:52.576Z,999.90
2022-12-31T07:29:30.728Z,999.90
2022-12-31T07:32:12.688Z,999.90
2022-12-31T07:34:53.200Z,999.90
2022-12-31T07:37:32.679Z,999.90
2022-12-31T07:40:09.786Z,999.90
2022-12-31T07:42:42.300Z,999.90
2022-12-31T07:45:19.441Z,999.90
2022-12-31T07:47:48.059Z,999.90
2022-12-31T07:50:19.668Z,999.90
2022-12-31T07:52:48.778Z,999.90
2022-12-31T07:55:17.353Z,999.90
2022-12-31T07:57:54.007Z,999.90
2022-12-31T08:00:23.268Z,999.90
2022-12-31T08:03:17.448Z,999.90
2022-12-31T08:05:54.225Z,999.90
2022-12-31T08:08:34.383Z,999.90
2022-12-31T08:11:13.912Z,999.90
2022-12-31T08:13:44.980Z,999.90
2022-12-31T08:16:14.781Z,999.90
2022-12-31T08:18:43.329Z,999.90
2022-12-31T08:21:32.770Z,999.90
2022-12-31T08:24:15.315Z,999.90
2022-12-31T08:26:54.163Z,999.90
2022-12-31T08:29:35.692Z,999.90
2022-12-31T08:32:13.718Z,999.90
2022-12-31T08:34:53.788Z,999.90
2022-12-31T08:37:33.388Z,999.90
2022-12-31T08:40:15.347Z,999.90
2022-12-31T08:42:52.995Z,999.90
2022-12-31T08:45:28.472Z,999.90
2022-12-31T08:48:04.783Z,999.90
2022-12-31T08:50:35.059Z,999.90
2022-12-31T08:55:36.875Z,5.40
2022-12-31T08:58:17.101Z,751.88
2022-12-31T09:03:37.680Z,10.88
2022-12-31T09:06:16.030Z,999.90
2022-12-31T09:08:52.806Z,335.45
2022-12-31T09:11:26.361Z,108.65
2022-12-31T09:14:22.794Z,999.90
2022-12-31T09:17:02.250Z,999.90
2022-12-31T09:19:32.445Z,999.90
2022-12-31T09:24:30.903Z,50.13
2022-12-31T09:27:07.450Z,999.90
2022-12-31T09:29:52.015Z,999.90
2022-12-31T09:32:27.331Z,999.90
2022-12-31T09:34:59.265Z,999.90
2022-12-31T09:37:39.763Z,999.90
2022-12-31T09:40:31.269Z,186.35
2022-12-31T09:43:18.255Z,999.90
2022-12-31T09:46:11.835Z,999.90
2022-12-31T09:49:10.339Z,999.90
2022-12-31T09:51:46.477Z,999.90
2022-12-31T09:54:29.407Z,999.90
2022-12-31T09:57:22.928Z,999.90
2022-12-31T09:59:59.268Z,999.90
2022-12-31T10:02:45.529Z,999.90
2022-12-31T10:05:37.762Z,999.90
2022-12-31T10:08:14.533Z,999.90
2022-12-31T10:10:51.367Z,999.90
2022-12-31T10:13:37.639Z,999.90
2022-12-31T10:16:41.602Z,999.90
2022-12-31T10:19:37.492Z,999.90
2022-12-31T10:22:25.629Z,999.90
2022-12-31T10:25:15.893Z,999.90
2022-12-31T10:27:52.920Z,37.05
2022-12-31T10:30:26.774Z,999.90
2022-12-31T10:33:08.053Z,24.40
2022-12-31T10:35:43.943Z,14.40
2022-12-31T10:38:24.942Z,999.90
2022-12-31T10:41:28.172Z,999.90
2022-12-31T10:44:37.971Z,999.90
2022-12-31T10:47:35.753Z,999.90
2022-12-31T10:50:39.751Z,999.90
2022-12-31T10:53:48.239Z,999.90
2022-12-31T10:56:54.454Z,999.90
2022-12-31T10:59:55.380Z,999.90
2022-12-31T11:02:58.474Z,999.90
2022-12-31T11:05:54.638Z,999.90
2022-12-31T11:08:46.180Z,999.90
2022-12-31T11:11:32.190Z,999.90
2022-12-31T11:14:48.804Z,190.82
2022-12-31T11:17:35.804Z,229.48
2022-12-31T11:20:44.264Z,282.20
2022-12-31T11:23:28.636Z,16.33
2022-12-31T11:26:08.104Z,3.33
2022-12-31T11:28:50.846Z,50.63
2022-12-31T11:31:34.038Z,23.58
2022-12-31T11:34:23.437Z,12.82
2022-12-31T11:37:12.331Z,9.13
2022-12-31T11:39:51.268Z,8.38
2022-12-31T11:42:33.614Z,8.10
2022-12-31T11:45:16.553Z,7.53
2022-12-31T11:50:58.108Z,31.15
2022-12-31T11:53:41.425Z,16.45
2022-12-31T11:56:19.898Z,13.27
2022-12-31T11:58:50.560Z,10.95
2022-12-31T12:01:23.529Z,9.45
2022-12-31T12:03:52.067Z,8.80
2022-12-31T12:06:28.695Z,8.45
2022-12-31T12:09:02.837Z,7.18
2022-12-31T12:11:36.116Z,999.90
2022-12-31T12:14:23.167Z,157.98
2022-12-31T12:17:00.824Z,132.85
2022-12-31T12:19:34.999Z,122.88
2022-12-31T12:22:12.252Z,110.15
2022-12-31T12:24:54.414Z,94.93
2022-12-31T12:27:29.507Z,85.53
2022-12-31T12:29:57.742Z,82.88
2022-12-31T12:32:27.976Z,81.55
2022-12-31T12:34:56.350Z,71.07
2022-12-31T12:37:33.105Z,67.65
2022-12-31T12:40:10.243Z,62.92
2022-12-31T12:42:52.056Z,59.70
2022-12-31T12:45:22.333Z,58.63
2022-12-31T12:47:55.991Z,54.67
2022-12-31T12:50:27.883Z,56.08
2022-12-31T12:53:26.204Z,52.53
2022-12-31T12:56:10.528Z,49.05
2022-12-31T12:58:52.376Z,48.22
2022-12-31T13:01:35.222Z,46.47
2022-12-31T13:04:35.791Z,46.83
2022-12-31T13:07:16.210Z,46.22
2022-12-31T13:12:56.799Z,999.90
2022-12-31T13:15:30.849Z,999.90
2022-12-31T13:18:13.510Z,999.90
2022-12-31T13:20:49.137Z,999.90
2022-12-31T13:23:23.873Z,999.90
2022-12-31T13:26:04.817Z,999.90
2022-12-31T13:28:39.112Z,999.90
2022-12-31T13:31:13.667Z,999.90
2022-12-31T13:33:46.063Z,999.90
2022-12-31T13:36:18.345Z,999.90
2022-12-31T13:38:49.890Z,999.90
2022-12-31T13:41:22.800Z,999.90
2022-12-31T13:43:58.203Z,999.90
2022-12-31T13:46:35.302Z,999.90
2022-12-31T13:49:06.769Z,999.90
2022-12-31T13:51:43.069Z,999.90
2022-12-31T13:54:22.572Z,999.90
2022-12-31T13:56:53.053Z,999.90
2022-12-31T13:59:28.471Z,999.90
2022-12-31T14:02:10.122Z,999.90
2022-12-31T14:04:43.585Z,999.90
2022-12-31T14:07:17.809Z,999.90
2022-12-31T14:09:46.661Z,999.90
2022-12-31T14:12:31.476Z,999.90
2022-12-31T14:15:15.384Z,999.90
2022-12-31T14:17:49.315Z,999.90
2022-12-31T14:20:25.416Z,999.90
2022-12-31T14:23:08.537Z,999.90
2022-12-31T14:25:39.939Z,999.90
2022-12-31T14:28:16.238Z,999.90
2022-12-31T14:30:50.680Z,999.90
2022-12-31T14:33:44.855Z,999.90
2022-12-31T14:36:27.783Z,999.90
2022-12-31T14:39:07.440Z,999.90
2022-12-31T14:42:04.421Z,999.90
2022-12-31T14:44:52.051Z,999.90
2022-12-31T14:47:38.012Z,999.90
2022-12-31T14:50:11.797Z,999.90
2022-12-31T14:52:51.222Z,999.90
2022-12-31T14:55:30.494Z,999.90
2022-12-31T15:01:00.872Z,999.90
2022-12-31T15:03:46.318Z,999.90
2022-12-31T15:06:35.571Z,999.90
2022-12-31T15:09:24.314Z,999.90
2022-12-31T15:12:19.081Z,999.90
2022-12-31T15:15:09.864Z,999.90
2022-12-31T15:17:50.045Z,999.90
2022-12-31T15:23:04.977Z,999.90
2022-12-31T15:25:40.451Z,999.90
2022-12-31T15:28:38.053Z,999.90
2022-12-31T15:31:19.289Z,999.90
2022-12-31T15:34:00.302Z,999.90
2022-12-31T15:36:31.844Z,999.90
2022-12-31T15:39:42.143Z,999.90
2022-12-31T15:45:12.995Z,999.90
2022-12-31T15:47:48.119Z,999.90
2022-12-31T15:50:20.522Z,999.90
2022-12-31T15:52:54.304Z,999.90
2022-12-31T15:55:30.496Z,999.90
2022-12-31T15:58:03.654Z,999.90
2022-12-31T16:00:50.318Z,999.90
2022-12-31T16:03:25.690Z,999.90
2022-12-31T16:05:59.483Z,783.80
2022-12-31T16:08:32.635Z,999.90
2022-12-31T16:11:01.638Z,999.90
2022-12-31T16:13:31.189Z,999.90
2022-12-31T16:16:04.871Z,999.90
2022-12-31T16:18:42.629Z,999.90
2022-12-31T16:21:25.902Z,999.90
2022-12-31T16:24:02.679Z,999.90
2022-12-31T16:26:38.477Z,999.90
2022-12-31T16:29:15.888Z,999.90
2022-12-31T16:31:44.825Z,999.90
2022-12-31T16:34:16.389Z,999.90
2022-12-31T16:36:56.240Z,999.90
2022-12-31T16:39:32.214Z,999.90
2022-12-31T16:42:22.716Z,999.90
2022-12-31T16:44:52.717Z,999.90
2022-12-31T16:47:24.713Z,999.90
2022-12-31T16:50:02.062Z,999.90
2022-12-31T16:52:33.996Z,999.90
2022-12-31T16:55:12.224Z,999.90
2022-12-31T16:57:47.037Z,999.90
2022-12-31T17:00:19.239Z,999.90
2022-12-31T17:02:59.796Z,999.90
2022-12-31T17:05:35.554Z,999.90
2022-12-31T17:08:24.322Z,999.90
2022-12-31T17:10:54.223Z,85.03
2022-12-31T17:13:27.707Z,999.90
2022-12-31T17:15:59.657Z,999.90
2022-12-31T17:18:31.793Z,999.90
2022-12-31T17:21:12.279Z,999.90
2022-12-31T17:23:42.914Z,999.90
2022-12-31T17:26:14.847Z,999.90
2022-12-31T17:28:46.105Z,999.90
2022-12-31T17:31:32.533Z,999.90
2022-12-31T17:34:22.752Z,999.90
2022-12-31T17:39:25.843Z,999.90
2022-12-31T17:44:29.470Z,999.90
2022-12-31T17:46:58.019Z,999.90
2022-12-31T17:49:32.181Z,999.90
2022-12-31T17:52:00.539Z,999.90
2022-12-31T17:54:28.734Z,999.90
2022-12-31T17:57:03.543Z,999.90
2022-12-31T17:59:37.607Z,999.90
2022-12-31T18:02:13.128Z,999.90
2022-12-31T18:04:41.842Z,999.90
2022-12-31T18:07:10.183Z,999.90
2022-12-31T18:09:38.427Z,999.90
2022-12-31T18:12:09.740Z,999.90
2022-12-31T18:14:37.883Z,999.90
2022-12-31T18:17:18.045Z,999.90
2022-12-31T18:22:33.658Z,999.90
2022-12-31T18:25:01.860Z,70.35
2022-12-31T18:27:32.443Z,380.55
2022-12-31T18:30:04.542Z,999.90
2022-12-31T18:32:34.304Z,197.60
2022-12-31T18:35:04.286Z,304.70
2022-12-31T18:37:34.768Z,90.90
2022-12-31T18:40:03.152Z,155.98
2022-12-31T18:42:35.732Z,103.57
2022-12-31T18:45:04.823Z,231.15
2022-12-31T18:47:37.649Z,429.25
2022-12-31T18:50:07.538Z,106.25
2022-12-31T18:52:36.212Z,121.63
2022-12-31T18:55:25.444Z,204.52
2022-12-31T18:57:55.536Z,999.90
2022-12-31T19:00:23.957Z,999.90
2022-12-31T19:02:52.380Z,999.90
2022-12-31T19:05:26.086Z,999.90
2022-12-31T19:07:54.462Z,999.90
2022-12-31T19:10:22.974Z,999.90
2022-12-31T19:12:51.524Z,999.90
2022-12-31T19:15:31.125Z,999.90
2022-12-31T19:17:59.662Z,999.90
2022-12-31T19:20:28.082Z,999.90
2022-12-31T19:22:57.125Z,59.40
2022-12-31T19:25:27.828Z,999.90
2022-12-31T19:27:56.087Z,773.08
2022-12-31T19:30:28.682Z,999.90
2022-12-31T19:32:57.045Z,999.90
2022-12-31T19:35:25.941Z,999.90
2022-12-31T19:37:55.758Z,999.90
2022-12-31T19:40:27.087Z,999.90
2022-12-31T19:42:56.515Z,999.90
2022-12-31T19:45:27.327Z,999.90
2022-12-31T19:47:58.153Z,999.90
2022-12-31T19:50:31.861Z,999.90
2022-12-31T19:53:00.650Z,999.90
2022-12-31T19:55:28.767Z,999.90
2022-12-31T19:57:56.966Z,999.90
2022-12-31T20:00:25.063Z,999.90
2022-12-31T20:02:56.674Z,999.90
2022-12-31T20:05:25.713Z,999.90
2022-12-31T20:07:54.061Z,999.90
2022-12-31T20:10:22.265Z,999.90
2022-12-31T20:12:50.427Z,999.90
2022-12-31T20:15:20.990Z,999.90
2022-12-31T20:17:52.063Z,999.90
2022-12-31T20:20:21.758Z,999.90
2022-12-31T20:22:51.545Z,999.90
2022-12-31T20:25:20.011Z,999.90
2022-12-31T20:27:48.296Z,999.90
2022-12-31T20:30:20.023Z,999.90
2022-12-31T20:32:48.428Z,999.90
2022-12-31T20:35:18.452Z,999.90
2022-12-31T20:37:48.053Z,999.90
2022-12-31T20:40:16.407Z,999.90
2022-12-31T20:42:46.550Z,999.90
2022-12-31T20:47:43.389Z,999.90
2022-12-31T20:50:12.677Z,999.90
2022-12-31T20:52:41.614Z,999.90
2022-12-31T20:55:19.327Z,999.90
2022-12-31T20:57:47.756Z,999.90
2022-12-31T21:00:19.490Z,185.18
2022-12-31T21:02:57.586Z,28.40
2022-12-31T21:05:32.654Z,41.08
2022-12-31T21:08:00.854Z,31.52
2022-12-31T21:10:30.809Z,28.05
2022-12-31T21:12:57.793Z,36.67
2022-12-31T21:15:26.278Z,38.17
2022-12-31T21:17:57.134Z,37.10
2022-12-31T21:20:26.449Z,39.42
2022-12-31T21:22:55.075Z,39.17
2022-12-31T21:25:23.363Z,35.95
2022-12-31T21:27:59.377Z,29.33
2022-12-31T21:30:27.464Z,26.75
2022-12-31T21:32:56.026Z,28.98
2022-12-31T21:35:42.696Z,27.08
2022-12-31T21:38:12.787Z,27.40
2022-12-31T21:40:44.862Z,28.60
2022-12-31T21:43:15.794Z,29.15
2022-12-31T21:45:44.692Z,29.73
2022-12-31T21:48:25.127Z,31.45
2022-12-31T21:50:54.987Z,32.42
2022-12-31T21:53:30.444Z,33.00
2022-12-31T21:56:09.888Z,29.13
2022-12-31T21:58:44.476Z,30.00
2022-12-31T22:01:35.313Z,28.25
2022-12-31T22:04:04.272Z,29.02
2022-12-31T22:06:36.974Z,28.35
2022-12-31T22:09:07.961Z,27.95
2022-12-31T22:11:37.326Z,30.42
2022-12-31T22:14:08.261Z,30.88
2022-12-31T22:16:37.635Z,27.13
2022-12-31T22:19:06.388Z,30.33
2022-12-31T22:21:34.601Z,34.78
2022-12-31T22:24:03.826Z,37.88
2022-12-31T22:26:32.373Z,28.67
2022-12-31T22:29:01.228Z,22.08
2022-12-31T22:31:31.737Z,24.98
2022-12-31T22:34:02.052Z,25.27
2022-12-31T22:36:30.296Z,35.25
2022-12-31T22:38:59.237Z,33.85
2022-12-31T22:41:29.555Z,24.00
2022-12-31T22:44:03.975Z,20.50
2022-12-31T22:46:42.347Z,21.08
2022-12-31T22:49:11.792Z,20.42
2022-12-31T22:51:57.670Z,21.17
2022-12-31T22:54:26.997Z,19.95
2022-12-31T22:56:55.804Z,20.17
2022-12-31T22:59:25.311Z,18.10
2022-12-31T23:01:57.728Z,19.08
2022-12-31T23:04:27.505Z,18.20
2022-12-31T23:06:56.962Z,19.00
2022-12-31T23:09:43.118Z,19.73
2022-12-31T23:12:12.096Z,16.95
2022-12-31T23:14:57.436Z,17.60
2022-12-31T23:17:46.353Z,17.35
2022-12-31T23:20:34.681Z,18.95
2022-12-31T23:23:12.918Z,17.52
2022-12-31T23:25:43.841Z,17.08
2022-12-31T23:28:13.978Z,16.95
2022-12-31T23:30:43.458Z,17.23
2022-12-31T23:33:15.645Z,16.40
2022-12-31T23:35:44.542Z,15.30
2022-12-31T23:38:13.459Z,22.48
2022-12-31T23:40:42.718Z,13.77
2022-12-31T23:43:19.801Z,11.37
2022-12-31T23:45:51.069Z,12.13
2022-12-31T23:48:23.997Z,14.45
2022-12-31T23:50:54.391Z,12.00
2022-12-31T23:53:23.415Z,11.15
2022-12-31T23:55:52.167Z,11.50
2022-12-31T23:58:21.291Z,11.35
